Time;durP1;ratioP1;P1;durP2;ratioP2;P2;SDS_P1;SDS_P2;PMS_P1;PMS_P2;Temp;Humidity;BMP_temperature;BMP_pressure;BME280_temperature;BME280_humidity;BME280_pressure;Samples;Min_cycle;Max_cycle;Signal;HPM_P1;HPM_P2
2023/05/03 00:02:20;;;;;;;5.18;3.10;;;;;;;5.30;91.80;102811.97;5089999;28;20032;-72
2023/05/03 00:04:47;;;;;;;5.38;2.72;;;;;;;5.31;91.35;102806.53;5089917;28;20039;-72
2023/05/03 00:07:13;;;;;;;9.77;3.20;;;;;;;5.32;91.34;102816.19;5090214;28;20066;-72
2023/05/03 00:09:38;;;;;;;5.45;2.80;;;;;;;5.28;91.94;102812.06;5089977;28;20096;-73
2023/05/03 00:12:05;;;;;;;10.93;3.92;;;;;;;5.23;92.36;102809.75;5089830;28;20025;-72
2023/05/03 00:14:30;;;;;;;6.20;3.15;;;;;;;5.25;91.71;102812.28;5089940;28;20156;-72
2023/05/03 00:16:55;;;;;;;6.47;2.38;;;;;;;5.25;92.83;102812.28;5089759;28;20123;-72
2023/05/03 00:19:23;;;;;;;9.48;3.00;;;;;;;5.21;92.22;102810.81;5089596;28;20044;-73
2023/05/03 00:21:48;;;;;;;9.95;2.67;;;;;;;5.19;92.95;102804.81;5088529;28;20032;-73
2023/05/03 00:24:14;;;;;;;6.20;3.38;;;;;;;5.11;92.50;102800.09;5088587;28;20094;-73
2023/05/03 00:26:39;;;;;;;6.70;2.63;;;;;;;5.14;93.41;102809.59;5088573;28;20054;-72
2023/05/03 00:29:04;;;;;;;11.75;2.80;;;;;;;5.08;93.16;102788.88;5089834;28;20032;-72
2023/05/03 00:31:30;;;;;;;6.30;2.47;;;;;;;5.04;93.55;102791.75;5089827;28;20032;-72
2023/05/03 00:33:55;;;;;;;8.20;2.83;;;;;;;5.07;92.82;102809.19;5089629;28;20376;-72
2023/05/03 00:36:20;;;;;;;6.45;3.20;;;;;;;5.04;92.90;102806.78;5089756;28;20039;-72
2023/05/03 00:38:46;;;;;;;5.45;2.58;;;;;;;5.00;93.75;102792.06;5088317;28;20079;-72
2023/05/03 00:41:12;;;;;;;6.57;2.72;;;;;;;5.02;93.69;102801.59;5089734;28;20042;-72
2023/05/03 00:43:38;;;;;;;4.60;2.97;;;;;;;4.94;93.94;102792.53;5089626;28;20020;-72
2023/05/03 00:46:05;;;;;;;7.75;2.60;;;;;;;4.97;94.57;102801.06;5089155;28;20387;-72
2023/05/03 00:48:32;;;;;;;4.25;2.92;;;;;;;4.96;94.00;102809.13;5089390;28;20059;-72
2023/05/03 00:50:59;;;;;;;11.68;4.38;;;;;;;4.93;95.21;102804.06;5089547;28;20024;-72
2023/05/03 00:53:25;;;;;;;5.65;2.65;;;;;;;4.94;94.63;102811.03;5089461;28;20055;-72
2023/05/03 00:55:52;;;;;;;7.03;3.60;;;;;;;4.92;94.80;102820.88;5089321;28;20067;-72
2023/05/03 00:58:17;;;;;;;6.53;3.50;;;;;;;4.87;94.67;102817.72;5089397;28;20040;-70
2023/05/03 01:00:43;;;;;;;7.32;3.03;;;;;;;4.86;95.35;102816.88;5089517;28;20498;-70
2023/05/03 01:03:08;;;;;;;8.63;3.50;;;;;;;4.83;95.54;102815.31;5089318;28;20031;-70
2023/05/03 01:06:02;;;;;;;8.07;3.60;;;;;;;4.71;96.39;102802.94;5089353;28;20035;-70
2023/05/03 01:08:34;;;;;;;7.95;3.30;;;;;;;4.77;96.38;102814.91;5081647;28;20033;-70
2023/05/03 01:11:21;;;;;;;5.95;3.00;;;;;;;4.72;97.28;102807.31;5093426;28;21024;-70
2023/05/03 01:14:19;;;;;;;8.80;3.70;;;;;;;4.67;97.53;102798.03;5093384;28;20071;-70
2023/05/03 01:16:55;;;;;;;6.70;2.95;;;;;;;4.65;97.65;102808.69;5093048;28;20024;-70
2023/05/03 01:19:37;;;;;;;7.88;3.75;;;;;;;4.63;97.65;102801.81;5093149;28;20032;-70
2023/05/03 01:22:15;;;;;;;7.35;3.28;;;;;;;4.60;97.40;102795.78;5093210;28;20031;-70
2023/05/03 01:24:46;;;;;;;7.38;2.67;;;;;;;4.58;97.43;102813.59;5093234;28;20028;-70
2023/05/03 01:27:12;;;;;;;7.32;2.97;;;;;;;4.56;97.43;102807.56;5092942;28;20027;-70
2023/05/03 01:29:37;;;;;;;9.88;3.70;;;;;;;4.56;97.51;102806.72;5093046;28;20028;-70
2023/05/03 01:32:08;;;;;;;6.28;3.13;;;;;;;4.54;97.47;102811.25;5092835;28;20043;-70
2023/05/03 01:35:02;;;;;;;4.90;2.75;;;;;;;4.50;97.56;102813.25;5092946;28;20027;-71
2023/05/03 01:37:27;;;;;;;5.05;3.22;;;;;;;4.50;97.19;102820.34;5092966;28;20101;-70
2023/05/03 01:40:06;;;;;;;7.97;3.83;;;;;;;4.47;97.76;102824.03;5092835;28;20078;-70
2023/05/03 01:42:37;;;;;;;4.22;2.55;;;;;;;4.47;97.75;102817.91;5108085;28;20416;-70
2023/05/03 01:45:06;;;;;;;6.50;3.55;;;;;;;4.44;98.27;102812.84;5108153;28;20382;-70
2023/05/03 01:47:31;;;;;;;7.45;3.75;;;;;;;4.42;98.07;102812.94;5092661;28;20032;-70
2023/05/03 01:49:56;;;;;;;4.55;2.97;;;;;;;4.38;98.06;102820.25;5092684;28;20027;-70
2023/05/03 01:52:22;;;;;;;6.28;3.00;;;;;;;4.36;97.79;102818.69;5092556;28;20131;-70
2023/05/03 01:54:47;;;;;;;7.35;3.58;;;;;;;4.35;98.88;102831.06;5091302;28;20032;-70
2023/05/03 01:57:13;;;;;;;9.40;3.00;;;;;;;4.35;98.19;102817.00;5092356;28;20063;-70
2023/05/03 01:59:38;;;;;;;9.57;3.50;;;;;;;4.33;98.62;102821.53;5092495;28;20137;-70
2023/05/03 02:02:03;;;;;;;15.75;3.22;;;;;;;4.32;99.03;102811.91;5092385;28;20040;-70
2023/05/03 02:04:29;;;;;;;6.28;3.17;;;;;;;4.32;99.41;102818.06;5092428;28;20036;-70
2023/05/03 02:06:54;;;;;;;7.72;4.47;;;;;;;4.26;98.26;102810.53;5092327;28;20032;-70
2023/05/03 02:09:19;;;;;;;5.72;3.35;;;;;;;4.27;98.52;102811.38;5090960;28;20035;-70
2023/05/03 02:11:45;;;;;;;5.93;2.83;;;;;;;4.26;98.30;102820.28;5092181;28;20023;-70
2023/05/03 02:14:11;;;;;;;9.15;3.42;;;;;;;4.27;99.11;102820.19;5092039;28;20059;-70
2023/05/03 02:16:36;;;;;;;7.85;3.85;;;;;;;4.26;98.68;102820.28;5092085;28;20038;-70
2023/05/03 02:19:02;;;;;;;5.32;3.35;;;;;;;4.20;98.40;102815.41;5092100;28;20044;-70
2023/05/03 02:21:27;;;;;;;9.90;3.22;;;;;;;4.22;99.19;102824.94;5090728;28;20053;-70
2023/05/03 02:23:53;;;;;;;7.72;3.00;;;;;;;4.20;99.21;102821.53;5092140;28;20028;-70
2023/05/03 02:26:19;;;;;;;14.07;3.95;;;;;;;4.17;99.79;102817.31;5091844;28;20028;-70
2023/05/03 02:28:44;;;;;;;8.75;3.30;;;;;;;4.15;100.00;102816.56;5091908;28;20057;-70
2023/05/03 02:31:11;;;;;;;5.05;2.80;;;;;;;4.15;99.35;102806.00;5091835;28;20124;-70
2023/05/03 02:33:36;;;;;;;7.38;3.97;;;;;;;4.13;99.74;102807.06;5091762;28;20483;-70
2023/05/03 02:36:02;;;;;;;9.70;3.72;;;;;;;4.04;99.57;102794.50;5091651;28;20066;-70
2023/05/03 02:38:27;;;;;;;8.82;3.40;;;;;;;4.09;99.66;102809.09;5091648;28;20039;-70
2023/05/03 02:40:53;;;;;;;7.45;4.18;;;;;;;4.05;99.43;102801.47;5091694;28;20024;-70
2023/05/03 02:43:18;;;;;;;8.20;3.65;;;;;;;3.95;99.80;102778.31;5090375;28;20064;-70
2023/05/03 02:45:43;;;;;;;9.02;3.80;;;;;;;3.88;100.00;102771.81;5091624;28;20024;-70
2023/05/03 02:48:09;;;;;;;12.93;4.20;;;;;;;3.97;100.00;102790.59;5091461;28;20024;-70
2023/05/03 02:50:35;;;;;;;10.50;4.22;;;;;;;3.92;100.00;102785.63;5091579;28;20044;-70
2023/05/03 02:53:00;;;;;;;11.43;4.20;;;;;;;3.90;100.00;102775.19;5091262;28;20399;-70
2023/05/03 02:55:26;;;;;;;5.00;3.05;;;;;;;3.85;100.00;102766.75;5089839;28;20097;-70
2023/05/03 02:57:51;;;;;;;8.27;3.85;;;;;;;3.86;100.00;102765.78;5091431;28;20047;-70
2023/05/03 03:00:16;;;;;;;9.15;4.45;;;;;;;3.82;100.00;102759.00;5091190;28;20039;-70
2023/05/03 03:02:42;;;;;;;8.88;3.92;;;;;;;3.81;100.00;102756.50;5106512;28;20440;-70
2023/05/03 03:05:08;;;;;;;8.40;3.70;;;;;;;3.81;100.00;102748.56;5091164;28;20063;-70
2023/05/03 03:07:33;;;;;;;11.60;3.90;;;;;;;3.77;100.00;102744.44;5091106;28;20043;-70
2023/05/03 03:09:59;;;;;;;13.00;4.65;;;;;;;3.74;100.00;102741.06;5091063;28;20592;-70
2023/05/03 03:12:26;;;;;;;7.55;3.85;;;;;;;3.80;100.00;102754.78;5091024;28;20032;-70
2023/05/03 03:14:51;;;;;;;8.07;3.63;;;;;;;3.77;100.00;102757.63;5091009;28;20479;-70
2023/05/03 03:17:17;;;;;;;13.43;3.75;;;;;;;3.80;100.00;102760.94;5090963;28;20040;-70
2023/05/03 03:19:42;;;;;;;6.60;3.08;;;;;;;3.80;100.00;102773.25;5090969;28;20028;-70
2023/05/03 03:22:07;;;;;;;6.18;3.55;;;;;;;3.80;100.00;102779.41;5090811;28;20107;-70
2023/05/03 03:24:33;;;;;;;8.05;4.03;;;;;;;3.80;100.00;102778.53;5090684;28;20031;-70
2023/05/03 03:26:58;;;;;;;8.30;3.47;;;;;;;3.79;100.00;102777.69;5090920;28;20031;-70
2023/05/03 03:29:24;;;;;;;11.15;5.20;;;;;;;3.78;100.00;102783.09;5090737;28;20058;-70
2023/05/03 03:31:49;;;;;;;11.48;4.18;;;;;;;3.75;100.00;102778.88;5090221;28;20144;-70
2023/05/03 03:34:15;;;;;;;10.82;4.30;;;;;;;3.76;100.00;102788.47;5090578;28;20390;-70
2023/05/03 03:36:40;;;;;;;9.10;3.85;;;;;;;3.73;100.00;102781.59;5090620;28;20028;-70
2023/05/03 03:39:06;;;;;;;7.22;3.70;;;;;;;3.72;100.00;102786.97;5090491;28;20020;-70
2023/05/03 03:41:32;;;;;;;7.90;3.45;;;;;;;3.70;100.00;102780.97;5090347;28;20062;-70
2023/05/03 03:43:57;;;;;;;7.00;4.22;;;;;;;3.68;100.00;102778.44;5090541;28;20055;-70
2023/05/03 03:46:23;;;;;;;5.95;4.00;;;;;;;3.68;100.00;102782.88;5090435;28;20124;-70
2023/05/03 03:48:49;;;;;;;11.38;4.32;;;;;;;3.66;100.00;102772.41;5090436;28;20031;-70
2023/05/03 03:51:14;;;;;;;8.80;4.25;;;;;;;3.64;100.00;102768.19;5090449;28;20546;-70
2023/05/03 03:53:40;;;;;;;11.07;3.97;;;;;;;3.65;100.00;102769.88;5090187;28;20020;-70
2023/05/03 03:56:06;;;;;;;9.10;4.05;;;;;;;3.51;100.00;102755.84;5088914;28;20163;-70
2023/05/03 03:58:32;;;;;;;8.23;3.78;;;;;;;3.58;100.00;102774.72;5090415;28;20036;-70
2023/05/03 04:00:59;;;;;;;11.32;4.45;;;;;;;3.53;100.00;102768.06;5090131;28;20028;-70
2023/05/03 04:03:25;;;;;;;10.23;4.35;;;;;;;3.56;100.00;102768.69;5090165;28;20540;-70
2023/05/03 04:05:50;;;;;;;8.50;3.80;;;;;;;3.56;100.00;102771.34;5090063;28;20059;-70
2023/05/03 04:08:16;;;;;;;9.95;4.35;;;;;;;3.55;100.00;102768.81;5089927;28;20105;-70
2023/05/03 04:10:42;;;;;;;8.48;4.00;;;;;;;3.56;100.00;102778.41;5088855;28;20036;-70
2023/05/03 04:13:07;;;;;;;9.57;4.32;;;;;;;3.57;100.00;102785.41;5089819;28;20123;-70
2023/05/03 04:15:33;;;;;;;14.00;5.60;;;;;;;3.57;100.00;102785.41;5088322;28;20505;-70
2023/05/03 04:17:58;;;;;;;12.02;4.97;;;;;;;3.57;100.00;102788.03;5089697;28;20040;-70
2023/05/03 04:20:23;;;;;;;14.57;4.38;;;;;;;3.57;100.00;102790.66;5090007;28;20035;-70
2023/05/03 04:22:49;;;;;;;10.32;4.38;;;;;;;3.57;100.00;102798.59;5089892;28;20024;-70
2023/05/03 04:25:15;;;;;;;11.15;4.05;;;;;;;3.58;100.00;102800.25;5089672;28;20398;-70
2023/05/03 04:27:41;;;;;;;6.25;3.50;;;;;;;3.55;100.00;102793.41;5089805;28;20150;-70
2023/05/03 04:30:07;;;;;;;12.60;4.90;;;;;;;3.51;100.00;102790.13;5089917;28;20506;-70
2023/05/03 04:32:36;;;;;;;11.27;4.00;;;;;;;3.61;100.00;102802.69;5089536;28;20047;-70
2023/05/03 04:35:08;;;;;;;8.32;4.30;;;;;;;3.63;100.00;102801.63;5089493;28;20028;-70
2023/05/03 04:37:34;;;;;;;9.63;4.50;;;;;;;3.74;100.00;102795.63;5088222;28;20059;-70
2023/05/03 04:39:59;;;;;;;6.38;3.30;;;;;;;3.86;100.00;102801.91;5089634;28;20059;-70
2023/05/03 04:42:25;;;;;;;10.88;3.85;;;;;;;3.98;100.00;102805.47;5089575;28;20108;-70
2023/05/03 04:44:51;;;;;;;9.82;4.53;;;;;;;4.00;100.00;102804.41;5091344;28;20055;-70
2023/05/03 04:47:17;;;;;;;9.50;4.05;;;;;;;4.04;100.00;102810.34;5093595;28;20024;-70
2023/05/03 04:49:42;;;;;;;10.82;4.75;;;;;;;4.28;100.00;102818.38;5093423;28;20028;-70
2023/05/03 04:52:09;;;;;;;11.65;4.95;;;;;;;4.56;99.91;102819.94;5093586;28;20146;-70
2023/05/03 04:54:34;;;;;;;6.80;4.18;;;;;;;4.74;98.67;102808.06;5093604;28;20043;-70
2023/05/03 04:57:00;;;;;;;7.70;3.20;;;;;;;4.93;97.17;102820.78;5093409;28;20048;-70
2023/05/03 04:59:25;;;;;;;6.72;3.58;;;;;;;4.96;96.91;102828.47;5091709;28;20036;-70
2023/05/03 05:01:51;;;;;;;17.33;4.50;;;;;;;5.00;97.83;102835.25;5093086;28;20032;-70
2023/05/03 05:04:16;;;;;;;6.90;3.50;;;;;;;5.31;96.39;102837.44;5093721;28;20490;-70
2023/05/03 05:06:41;;;;;;;10.18;4.28;;;;;;;5.77;93.97;102845.44;5092991;28;20070;-70
2023/05/03 05:09:19;;;;;;;8.85;4.07;;;;;;;5.88;92.87;102842.81;5093301;28;20020;-70
2023/05/03 05:11:45;;;;;;;10.75;4.07;;;;;;;5.93;92.64;102853.94;5085018;28;20436;-70
2023/05/03 05:14:11;;;;;;;7.13;4.30;;;;;;;5.99;91.80;102851.78;5086627;28;20061;-71
2023/05/03 05:16:36;;;;;;;4.88;3.25;;;;;;;6.03;91.17;102850.59;5086873;28;20036;-70
2023/05/03 05:19:02;;;;;;;9.93;4.47;;;;;;;6.10;90.04;102860.63;5085280;28;20074;-74
2023/05/03 05:21:28;;;;;;;6.82;3.95;;;;;;;6.28;90.26;102855.69;5086742;28;20032;-73
2023/05/03 05:23:53;;;;;;;7.05;3.33;;;;;;;6.27;88.88;102859.31;5086976;28;20543;-72
2023/05/03 05:26:19;;;;;;;8.75;3.75;;;;;;;6.36;89.05;102857.75;5086963;28;20048;-74
2023/05/03 05:28:44;;;;;;;5.35;3.40;;;;;;;6.47;88.62;102871.03;5085278;28;20028;-73
2023/05/03 05:31:09;;;;;;;7.18;3.92;;;;;;;6.59;88.21;102859.44;5086678;28;20068;-74
2023/05/03 05:33:35;;;;;;;7.75;3.97;;;;;;;6.87;87.16;102856.41;5085442;28;20174;-74
2023/05/03 05:36:00;;;;;;;7.20;3.83;;;;;;;7.04;85.84;102850.59;5086990;28;20036;-71
2023/05/03 05:38:26;;;;;;;8.02;4.03;;;;;;;7.21;85.30;102860.69;5085585;28;20402;-71
2023/05/03 05:40:52;;;;;;;9.38;4.32;;;;;;;7.56;84.36;102864.06;5086658;28;20040;-71
2023/05/03 05:43:17;;;;;;;6.75;3.10;;;;;;;7.52;83.09;102857.31;5086400;28;20024;-71
2023/05/03 05:45:42;;;;;;;9.82;3.95;;;;;;;7.50;83.03;102854.78;5086934;28;20054;-71
2023/05/03 05:48:08;;;;;;;14.02;5.15;;;;;;;7.43;83.12;102862.41;5085400;28;20024;-71
2023/05/03 05:50:33;;;;;;;9.35;3.90;;;;;;;7.26;84.80;102857.66;5086173;28;20024;-71
2023/05/03 05:52:59;;;;;;;10.27;3.80;;;;;;;7.22;84.41;102862.34;5086439;28;20024;-71
2023/05/03 05:55:24;;;;;;;8.88;3.33;;;;;;;7.12;84.24;102853.44;5086207;28;20201;-71
2023/05/03 05:57:49;;;;;;;8.98;4.32;;;;;;;7.15;84.27;102871.81;5085096;28;20467;-71
2023/05/03 06:00:16;;;;;;;5.57;3.10;;;;;;;7.22;85.37;102869.47;5086033;28;20043;-71
2023/05/03 06:02:42;;;;;;;6.82;3.65;;;;;;;7.37;84.52;102860.28;5085855;28;20032;-70
2023/05/03 06:05:09;;;;;;;6.90;3.80;;;;;;;7.48;83.65;102854.06;5085721;28;20020;-70
2023/05/03 06:07:34;;;;;;;8.38;3.35;;;;;;;7.78;82.81;102866.63;5084449;28;20044;-71
2023/05/03 06:10:00;;;;;;;8.40;4.47;;;;;;;7.79;83.60;102857.69;5086205;28;20043;-69
2023/05/03 06:12:26;;;;;;;9.23;3.70;;;;;;;7.71;82.79;102862.78;5085597;28;20090;-71
2023/05/03 06:14:51;;;;;;;6.82;3.88;;;;;;;7.58;83.53;102857.66;5085505;28;20024;-71
2023/05/03 06:17:16;;;;;;;7.80;4.70;;;;;;;7.48;84.91;102862.03;5084525;28;20096;-70
2023/05/03 06:19:42;;;;;;;8.27;4.30;;;;;;;7.62;84.17;102871.50;5084286;28;20019;-70
2023/05/03 06:22:07;;;;;;;8.50;3.60;;;;;;;7.72;82.76;102859.16;5085809;28;20020;-70
2023/05/03 06:24:32;;;;;;;10.00;4.72;;;;;;;7.98;83.23;102856.13;5085169;28;20173;-70
2023/05/03 06:26:59;;;;;;;9.73;3.78;;;;;;;8.26;82.84;102850.13;5085753;28;20035;-70
2023/05/03 06:29:24;;;;;;;7.80;3.70;;;;;;;8.24;80.90;102844.09;5085076;28;20118;-70
2023/05/03 06:31:50;;;;;;;9.85;3.95;;;;;;;8.13;80.66;102854.81;5084959;28;20107;-71
2023/05/03 06:34:21;;;;;;;8.15;4.53;;;;;;;7.97;81.40;102855.28;5085780;28;20475;-70
2023/05/03 06:36:48;;;;;;;10.75;5.20;;;;;;;7.89;82.85;102861.25;5085963;28;20107;-70
2023/05/03 06:39:13;;;;;;;7.05;3.92;;;;;;;7.81;82.13;102858.41;5084276;28;20028;-70
2023/05/03 06:41:39;;;;;;;7.68;3.78;;;;;;;7.79;82.74;102844.41;5066592;28;20062;-70
2023/05/03 06:44:05;;;;;;;7.63;3.80;;;;;;;7.90;83.17;102856.78;5085462;28;20023;-70
2023/05/03 06:46:31;;;;;;;9.88;4.10;;;;;;;7.82;82.19;102841.47;5086096;28;20035;-70
2023/05/03 06:48:57;;;;;;;5.20;2.90;;;;;;;7.88;82.74;102843.59;5085400;28;20394;-76
2023/05/03 06:51:26;;;;;;;10.43;4.10;;;;;;;7.93;82.10;102845.03;5083108;28;20063;-79
2023/05/03 06:53:53;;;;;;;10.02;4.88;;;;;;;7.97;81.81;102838.50;5082856;28;20057;-79
2023/05/03 06:56:19;;;;;;;9.55;3.50;;;;;;;7.97;82.86;102843.81;5083142;28;20396;-76
2023/05/03 06:58:44;;;;;;;8.52;3.83;;;;;;;7.96;81.51;102845.59;5084421;28;20038;-75
2023/05/03 07:01:10;;;;;;;9.07;3.92;;;;;;;7.83;82.76;102827.25;5084405;28;20034;-74
2023/05/03 07:03:36;;;;;;;7.90;3.60;;;;;;;7.95;81.97;102833.31;5084749;28;20056;-75
2023/05/03 07:06:02;;;;;;;6.45;3.47;;;;;;;8.08;81.35;102830.44;5065919;28;20047;-74
2023/05/03 07:08:28;;;;;;;13.32;4.20;;;;;;;8.19;81.70;102830.38;5081645;28;20025;-82
2023/05/03 07:10:53;;;;;;;11.85;4.20;;;;;;;8.39;80.07;102838.44;5081622;28;20558;-80
2023/05/03 07:13:18;;;;;;;8.45;3.97;;;;;;;8.51;80.26;102840.06;5083853;28;20035;-79
2023/05/03 07:15:44;;;;;;;10.55;4.32;;;;;;;8.55;80.54;102839.66;5083568;28;20026;-83
2023/05/03 07:18:10;;;;;;;7.15;3.60;;;;;;;8.61;80.42;102843.59;5083837;28;20027;-83
2023/05/03 07:20:35;;;;;;;7.65;3.35;;;;;;;8.53;75.90;102820.31;5079305;28;20048;-82
2023/05/03 07:23:01;;;;;;;5.18;3.88;;;;;;;8.65;76.52;102828.22;5080886;28;20036;-84
2023/05/03 07:25:26;;;;;;;10.88;4.13;;;;;;;8.81;75.82;102833.03;5081449;28;20404;-80
2023/05/03 07:27:52;;;;;;;9.77;4.15;;;;;;;9.17;74.77;102840.38;5079914;28;20118;-82
2023/05/03 07:30:17;;;;;;;8.23;3.17;;;;;;;9.56;73.61;102827.09;5063931;28;20062;-82
2023/05/03 07:32:43;;;;;;;6.28;3.15;;;;;;;9.79;71.28;102832.09;5081653;28;20039;-77
2023/05/03 07:35:09;;;;;;;6.30;3.28;;;;;;;9.86;69.90;102841.22;5081291;28;20033;-77
2023/05/03 07:37:34;;;;;;;14.00;3.60;;;;;;;10.02;70.12;102832.63;5082216;28;20146;-78
2023/05/03 07:39:59;;;;;;;8.38;3.10;;;;;;;10.60;69.10;102834.25;5083194;28;20375;-78
2023/05/03 07:42:25;;;;;;;7.10;2.92;;;;;;;11.29;66.66;102823.03;5081076;28;20028;-81
2023/05/03 07:44:51;;;;;;;11.13;3.10;;;;;;;11.33;64.96;102819.03;5083748;28;20060;-77
2023/05/03 07:47:16;;;;;;;7.15;3.45;;;;;;;11.38;65.56;102816.75;5065392;28;20173;-76
2023/05/03 07:49:42;;;;;;;6.35;3.50;;;;;;;11.51;63.46;102818.19;5083702;28;20409;-75
2023/05/03 07:52:08;;;;;;;7.43;3.03;;;;;;;11.63;63.72;102812.44;5065620;28;20028;-76
2023/05/03 07:54:33;;;;;;;6.43;3.10;;;;;;;11.94;62.20;102812.00;5083764;28;20039;-76
2023/05/03 07:57:00;;;;;;;7.30;3.63;;;;;;;12.26;60.72;102803.34;5081958;28;20087;-77
2023/05/03 07:59:25;;;;;;;7.28;3.47;;;;;;;12.83;59.56;102796.53;5083462;28;20180;-77
2023/05/03 08:01:51;;;;;;;9.70;4.63;;;;;;;13.84;56.08;102790.06;5082369;28;20016;-78
2023/05/03 08:04:16;;;;;;;8.50;3.20;;;;;;;14.52;53.12;102794.88;5083263;28;20020;-76
2023/05/03 08:06:42;;;;;;;8.77;3.22;;;;;;;15.50;51.49;102780.78;5082729;28;20038;-81
2023/05/03 08:09:07;;;;;;;4.95;2.88;;;;;;;16.98;46.50;102787.16;5080371;28;20028;-80
2023/05/03 08:11:33;;;;;;;7.05;3.25;;;;;;;18.34;42.83;102772.41;5082012;28;20028;-83
2023/05/03 08:13:59;;;;;;;3.80;2.38;;;;;;;19.38;41.43;102786.59;5081807;28;20701;-78
2023/05/03 08:16:24;;;;;;;5.80;2.50;;;;;;;20.33;36.13;102781.63;5083148;28;20096;-81
2023/05/03 08:18:50;;;;;;;3.92;2.70;;;;;;;20.45;36.26;102776.38;5080949;28;20601;-80
2023/05/03 08:21:16;;;;;;;3.50;2.42;;;;;;;20.41;35.88;102777.84;5067303;28;20040;-78
2023/05/03 08:23:41;;;;;;;13.02;3.58;;;;;;;19.63;36.32;102768.69;5081821;28;20107;-77
2023/05/03 08:26:08;;;;;;;6.80;3.03;;;;;;;19.65;38.30;102769.31;5081471;28;20066;-77
2023/05/03 08:28:34;;;;;;;8.68;3.42;;;;;;;19.66;37.10;102779.09;5080394;28;20390;-81
2023/05/03 08:31:02;;;;;;;4.35;2.83;;;;;;;19.92;36.58;102782.81;5079152;28;20132;-77
2023/05/03 08:33:27;;;;;;;7.72;3.33;;;;;;;20.01;35.94;102772.56;5082258;28;20535;-76
2023/05/03 08:35:53;;;;;;;7.45;2.60;;;;;;;20.03;35.72;102776.75;5065158;28;20111;-77
2023/05/03 08:38:18;;;;;;;5.95;2.67;;;;;;;19.61;37.32;102778.03;5081585;28;20039;-76
2023/05/03 08:40:49;;;;;;;8.50;3.03;;;;;;;19.15;38.55;102765.34;5081995;28;20028;-76
2023/05/03 08:43:19;;;;;;;6.05;2.60;;;;;;;18.71;38.14;102775.66;5083250;28;20825;-75
2023/05/03 08:45:44;;;;;;;5.30;2.67;;;;;;;18.58;37.89;102767.50;5082564;28;20078;-75
2023/05/03 08:48:10;;;;;;;8.48;3.45;;;;;;;17.95;38.24;102771.16;5083680;28;20669;-73
2023/05/03 08:50:40;;;;;;;3.97;3.15;;;;;;;16.35;42.29;102774.19;5082807;28;20035;-78
2023/05/03 08:53:09;;;;;;;4.90;2.88;;;;;;;14.79;46.45;102763.19;5082753;28;20047;-76
2023/05/03 08:55:36;;;;;;;6.32;3.25;;;;;;;13.65;49.56;102759.06;5082542;28;20016;-76
2023/05/03 08:58:09;;;;;;;5.30;3.10;;;;;;;13.31;51.00;102765.50;5082670;28;20032;-76
2023/05/03 09:00:34;;;;;;;6.88;4.18;;;;;;;13.12;52.60;102767.44;5082359;28;20097;-76
2023/05/03 09:03:00;;;;;;;8.38;3.30;;;;;;;12.85;52.76;102760.53;5080531;28;20053;-78
2023/05/03 09:05:37;;;;;;;6.75;4.30;;;;;;;12.42;53.42;102769.66;5081740;28;20455;-77
2023/05/03 09:08:08;;;;;;;4.72;3.45;;;;;;;12.24;54.77;102773.25;5081664;28;20034;-78
2023/05/03 09:10:41;;;;;;;6.15;3.47;;;;;;;12.28;55.44;102779.94;5082717;28;20023;-76
2023/05/03 09:13:08;;;;;;;9.27;3.58;;;;;;;12.31;55.77;102777.94;5082367;28;20039;-77
2023/05/03 09:15:34;;;;;;;6.97;4.15;;;;;;;12.42;58.70;102775.00;5082579;28;20051;-72
2023/05/03 09:18:12;;;;;;;10.88;3.88;;;;;;;12.53;57.39;102764.00;5083019;28;20024;-72
2023/05/03 09:20:39;;;;;;;7.05;3.83;;;;;;;12.59;55.24;102787.41;5081767;28;20073;-72
2023/05/03 09:23:08;;;;;;;10.18;4.05;;;;;;;12.36;54.58;102779.13;5082148;28;20406;-75
2023/05/03 09:25:44;;;;;;;7.07;3.33;;;;;;;12.26;57.52;102779.28;5082443;28;20032;-76
2023/05/03 09:28:10;;;;;;;6.30;3.40;;;;;;;12.26;56.71;102792.66;5082777;28;20030;-78
2023/05/03 09:30:36;;;;;;;5.20;3.10;;;;;;;12.34;55.70;102780.28;5084776;28;20499;-74
2023/05/03 09:33:03;;;;;;;9.75;4.07;;;;;;;12.35;57.20;102772.13;5084978;28;20097;-80
2023/05/03 09:35:28;;;;;;;5.65;3.42;;;;;;;12.20;55.72;102771.03;5084609;28;20577;-81
2023/05/03 09:37:53;;;;;;;8.93;3.47;;;;;;;12.18;54.68;102781.91;5083272;28;20066;-73
2023/05/03 09:40:19;;;;;;;7.55;3.03;;;;;;;12.24;57.85;102765.22;5086098;28;20020;-72
2023/05/03 09:43:04;;;;;;;5.20;3.50;;;;;;;12.46;56.04;102770.97;5083976;28;20024;-73
2023/05/03 09:45:30;;;;;;;6.20;3.30;;;;;;;12.37;56.47;102771.97;5085725;28;21713;-72
2023/05/03 09:47:56;;;;;;;6.50;3.40;;;;;;;12.38;55.63;102765.59;5084633;28;20036;-76
2023/05/03 09:50:23;;;;;;;6.63;3.15;;;;;;;12.41;54.53;102755.41;5084606;28;20032;-77
2023/05/03 09:52:49;;;;;;;9.13;3.40;;;;;;;12.63;55.39;102759.34;5084128;28;20066;-79
2023/05/03 09:55:16;;;;;;;8.25;3.80;;;;;;;12.89;57.03;102767.25;5084941;28;20028;-82
2023/05/03 09:57:45;;;;;;;4.90;3.22;;;;;;;12.91;56.73;102759.88;5084364;28;20051;-80
2023/05/03 10:00:12;;;;;;;10.80;4.35;;;;;;;12.83;54.92;102746.47;5083625;28;20023;-74
2023/05/03 10:02:40;;;;;;;9.00;3.97;;;;;;;13.00;55.82;102754.56;5083884;28;20032;-74
2023/05/03 10:05:09;;;;;;;5.43;3.13;;;;;;;13.04;53.81;102748.69;5084538;28;20036;-76
2023/05/03 10:07:35;;;;;;;12.70;4.00;;;;;;;13.07;52.87;102759.09;5084780;28;20101;-75
2023/05/03 10:10:01;;;;;;;5.90;3.88;;;;;;;13.17;55.55;102756.22;5083647;28;20024;-75
2023/05/03 10:12:27;;;;;;;6.88;3.67;;;;;;;13.06;54.96;102746.69;5084243;28;20054;-76
2023/05/03 10:14:55;;;;;;;11.00;4.00;;;;;;;13.27;55.94;102748.88;5084277;28;20084;-73
2023/05/03 10:17:26;;;;;;;9.48;3.58;;;;;;;13.38;56.23;102737.81;5084712;28;20027;-76
2023/05/03 10:20:01;;;;;;;10.68;4.10;;;;;;;13.34;53.69;102744.53;5085899;28;20028;-76
2023/05/03 10:22:26;;;;;;;10.38;3.80;;;;;;;13.22;52.00;102747.69;5085875;28;20065;-76
2023/05/03 10:25:01;;;;;;;8.98;3.75;;;;;;;13.24;53.89;102751.88;5084768;28;20146;-76
2023/05/03 10:27:44;;;;;;;7.43;3.47;;;;;;;13.34;53.70;102747.22;5082840;28;20476;-75
2023/05/03 10:30:28;;;;;;;7.75;3.67;;;;;;;13.25;54.74;102747.34;5082577;28;20024;-75
2023/05/03 10:32:54;;;;;;;8.38;3.63;;;;;;;13.02;53.29;102742.69;5082784;28;20021;-75
2023/05/03 10:35:19;;;;;;;5.43;3.40;;;;;;;13.00;53.04;102739.31;5082398;28;20389;-75
2023/05/03 10:37:49;;;;;;;7.13;4.38;;;;;;;13.13;53.89;102746.88;5082910;28;20023;-75
2023/05/03 10:40:16;;;;;;;9.10;4.43;;;;;;;13.18;54.05;102747.19;5081066;28;20471;-75
2023/05/03 10:42:54;;;;;;;6.63;3.60;;;;;;;13.24;56.17;102751.06;5080877;28;20499;-75
2023/05/03 10:45:28;;;;;;;9.23;4.40;;;;;;;13.21;53.91;102752.22;5082641;28;20058;-74
2023/05/03 10:48:23;;;;;;;6.32;3.55;;;;;;;13.14;54.91;102746.69;5081938;28;20327;-75
2023/05/03 10:50:50;;;;;;;7.05;3.65;;;;;;;13.06;55.74;102749.34;5070584;28;20104;-72
2023/05/03 10:53:35;;;;;;;7.07;3.90;;;;;;;13.21;55.05;102748.72;5081541;28;20024;-71
2023/05/03 10:56:06;;;;;;;6.32;3.85;;;;;;;13.30;55.44;102761.13;5083950;28;20369;-71
2023/05/03 10:58:35;;;;;;;7.95;3.90;;;;;;;13.11;53.87;102751.53;5083613;28;20406;-71
2023/05/03 11:01:03;;;;;;;15.93;5.40;;;;;;;13.18;54.81;102746.34;5083752;28;20077;-72
2023/05/03 11:03:37;;;;;;;7.95;4.38;;;;;;;13.23;54.30;102746.69;5084121;28;20024;-71
2023/05/03 11:06:03;;;;;;;12.48;5.18;;;;;;;13.21;54.13;102738.00;5083603;28;20053;-72
2023/05/03 11:08:35;;;;;;;8.10;4.03;;;;;;;13.34;55.33;102728.47;5082981;28;20152;-72
2023/05/03 11:11:04;;;;;;;5.53;3.47;;;;;;;13.40;55.35;102728.78;5083816;28;20039;-71
2023/05/03 11:13:29;;;;;;;10.35;4.15;;;;;;;13.35;53.97;102737.34;5084050;28;20107;-71
2023/05/03 11:15:55;;;;;;;9.07;5.07;;;;;;;13.26;55.79;102733.84;5082843;28;20038;-71
2023/05/03 11:18:22;;;;;;;7.28;3.97;;;;;;;13.22;54.68;102721.72;5084015;28;20114;-72
2023/05/03 11:20:48;;;;;;;7.57;4.18;;;;;;;13.31;53.69;102723.44;5083449;28;20069;-71
2023/05/03 11:23:14;;;;;;;7.68;3.47;;;;;;;13.29;54.53;102712.06;5084981;28;20039;-71
2023/05/03 11:25:39;;;;;;;6.90;3.75;;;;;;;13.38;55.46;102718.22;5084502;28;20032;-72
2023/05/03 11:28:05;;;;;;;4.95;3.50;;;;;;;13.41;53.28;102709.84;5084830;28;20081;-72